Scyoc, Pennsylvania
Current Conditions -  °F | °C
As of 3:53 AM on Sunday 26 Oct 2014 (Local Time) from KAOO Reporting Station
Clear Clear  
Wind Chill: 52°   Ceiling: Unl
Heat Index: 52°   Visibility: 10mi
Dew Point: 34°   Wind: 14mph
Humidity: 50%   Direction: 310°NW
Pressure: 29.74"   Gusts: NA
Location:  40.3617°N, 77.6745°W
Report Text: KAOO 260753Z AUTO 31012KT 10SM CLR 11/01 A2974 RMK AO2 PK WND 31026/0700 SLP067 T01110011
Loading
Personal Weather Stations






























Interactive Weather Map
Tropical Storm Tracking
New forecast layout! Learn more

10-Day Weather Forecast

Advertisements
Track Severe Weather on mobile